Station: Ceduna

  Atmospheric Gas Attenuation - ITU Rec 676-11   --------------- db/100km ---------------
Date Time Temp RH % AH g/m3 Dew Point Wind Direction Speed kph Gust kph Barometer mB Rainfall Since 9am 24GHz 47GHz 76GHz 122GHz 134GHz 241GHz
24 19:40 32.4 29 10 12.1 22 30 1000.1 0 21.6 22.6 35.7 93.9 91.8 317.5
24 19:30 32.3 30 10.29 12.5 22 32 1000.3 0 22.2 23.0 36.7 96.5 95.0 328.9
24 19:20 31.4 33 10.79 13.6 17 20 1000.5 0 23.3 23.9 38.8 102.1 101.6 351.9
24 19:10 31.3 35 11.39 14 19 20 1000.7 0 24.6 24.7 40.9 107.7 108.5 376.0
24 19:00 31.9 32 10.75 13.6 35 50 1001.2 0 23.2 23.7 38.4 101.2 100.6 348.4
24 18:50 33.2 29 10.44 12.8 30 43 1001.2 0 22.5 23.0 36.8 96.9 95.6 331.2
24 18:40 34.2 23 8.72 10.1 30 39 1001 0 18.9 20.5 31.0 81.3 76.7 265.0
24 18:30 34.2 25 9.48 11.4 32 48 1001 0 20.5 21.5 33.3 87.6 84.4 292.1
24 18:20 34.7 23 8.96 10.5 35 46 1000.7 0 19.4 20.7 31.5 82.8 78.7 271.8
24 18:10 35.2 20 7.99 8.9 35 48 1000.8 0 17.4 19.4 28.4 74.5 68.7 236.8
24 18:00 35 20 7.91 8.7 32 44 1000.8 0 17.2 19.4 28.3 74.1 68.1 234.6
24 17:50 35.1 20 7.95 8.8 32 43 1000.9 0 17.3 19.4 28.3 74.3 68.4 235.7
24 17:40 35.1 20 7.95 8.8 32 43 1001 0 17.3 19.4 28.4 74.3 68.4 235.7
24 17:30 35.6 20 8.16 9.2 32 39 1001.2 0 17.7 19.6 28.8 75.6 70.0 241.5
24 17:20 35.4 19 7.67 8.3 33 48 1001.3 0 16.7 19.0 27.4 71.9 65.5 225.5
24 17:10 36 18 7.5 8 35 46 1001.4 0 16.4 18.7 26.8 70.1 63.4 218.3
24 17:00 36.1 17 7.12 7.2 33 46 1001.5 0 15.6 18.2 25.7 67.2 59.8 205.6
24 16:50 36.8 16 6.95 6.9 32 43 1001.5 0 15.2 17.9 25.0 65.4 57.7 198.5
24 16:40 36.9 15 6.55 6 33 43 1001.5 0 14.4 17.5 23.9 62.4 54.1 185.5
24 16:30 37.2 15 6.65 6.3 35 48 1001.5 0 14.6 17.5 24.1 62.9 54.8 188.0
24 16:20 37.2 16 7.09 7.2 39 54 1001.6 0 15.5 18.0 25.3 66.1 58.8 202.1
24 16:10 37.7 14 6.36 5.6 39 52 1001.6 0 14.0 17.1 23.1 60.4 51.9 177.9
24 16:00 38.1 14 6.5 6 33 50 1001.5 0 14.2 17.2 23.4 61.1 52.9 181.4
24 15:50 38.1 13 6.03 4.9 33 46 1001.6 0 13.3 16.7 22.2 57.8 48.7 166.9
24 15:40 38.3 14 6.56 6.1 37 50 1001.7 0 14.4 17.2 23.5 61.5 53.3 182.9
24 15:30 38.4 14 6.6 6.2 35 50 1001.7 0 14.4 17.3 23.6 61.7 53.6 183.9
24 15:20 38.4 14 6.6 6.2 33 46 1001.7 0 14.4 17.3 23.6 61.7 53.6 183.9
24 15:10 38.1 15 6.96 7 33 41 1001.8 0 15.2 17.7 24.7 64.5 57.0 195.9
24 15:00 37.3 16 7.13 7.3 32 43 1001.9 0 15.6 18.0 25.4 66.4 59.1 203.2
24 14:50 37.1 16 7.05 7.1 35 44 1001.9 0 15.4 18.0 25.2 65.9 58.5 201.1
24 14:40 37.3 17 7.57 8.2 33 44 1001.8 0 16.4 18.5 26.6 69.6 63.1 217.4
24 14:30 36.8 17 7.38 7.8 35 43 1002 0 16.1 18.4 26.2 68.6 61.7 212.5
24 14:20 36.8 17 7.38 7.8 33 44 1002 0 16.1 18.4 26.2 68.6 61.7 212.5
24 14:10 37.2 17 7.53 8.1 33 43 1002.2 0 16.4 18.5 26.5 69.4 62.8 216.4
24 14:00 37 18 7.9 8.8 33 44 1002.3 0 17.1 19.0 27.6 72.4 66.5 229.1
24 13:50 37.1 18 7.94 8.8 37 52 1002.4 0 17.2 19.0 27.7 72.7 66.8 230.2
24 13:40 36.7 18 7.77 8.5 32 43 1002.5 0 16.9 18.9 27.4 71.7 65.5 225.7
24 13:30 36.8 19 8.25 9.4 32 39 1002.7 0 17.8 19.5 28.7 75.3 70.0 241.4
24 13:20 36.5 18 7.7 8.4 28 39 1002.8 0 16.7 18.9 27.2 71.4 65.0 223.9
24 13:10 36.1 22 9.21 11 28 37 1003.1 0 19.8 20.8 31.8 83.6 80.0 276.5
24 13:00 35.1 26 10.34 12.7 24 32 1003.1 0 22.2 22.4 35.7 94.0 92.6 320.5
24 12:50 34 28 10.51 12.9 28 35 1003.2 0 22.6 22.9 36.8 96.8 95.6 331.2
24 12:40 33.9 29 10.83 13.4 28 35 1003.1 0 23.3 23.4 37.8 99.6 99.2 343.6
24 12:30 33.9 29 10.83 13.4 24 32 1003.8 0 23.3 23.4 37.9 99.7 99.2 343.8
24 12:20 33.6 29 10.66 13.6 28 32 1003.9 0 22.9 23.3 37.4 98.6 97.8 338.6
24 12:10 32.5 32 11.1 13.7 28 35 1003.8 0 23.9 24.1 39.4 103.8 103.9 360.1
24 12:00 31.8 34 11.36 14 28 33 1003.9 0 24.5 24.7 40.6 107.1 107.8 373.5
24 11:50 31 37 11.84 14.6 30 39 1004.2 0 25.5 25.6 42.7 112.7 114.4 396.5
24 11:40 30.2 38 11.65 14.3 35 44 1004.2 0 25.2 25.5 42.5 112.0 113.3 392.7
24 11:30 30.4 38 11.78 14.5 35 44 1004 0 25.4 25.7 42.8 112.9 114.5 397.0
24 11:20 30.7 39 12.28 15.2 28 35 1004.7 0 26.4 26.3 44.5 117.3 120.0 416.2
24 11:10 29.6 41 12.17 15.3 28 37 1005.1 0 26.3 26.5 44.7 117.9 120.4 417.4
24 11:00 29.2 44 12.78 15.7 24 32 1005.2 0 27.6 27.5 47.2 124.5 128.4 445.3
24 10:50 28 50 13.6 16.6 26 41 1005.4 0 29.4 29.2 51.1 134.8 140.7 488.1
24 10:40 27.2 50 13.01 15.9 32 52 1005 0 28.2 28.5 49.3 130.0 134.6 466.7
24 10:30 27.2 54 14.05 17.1 15 26 1005.4 0 30.4 30.2 53.3 140.9 148.0 513.4
24 10:20 27.2 55 14.31 17.4 11 20 1006.2 0 30.9 30.6 54.4 143.7 151.4 525.6
24 10:10 26.9 56 14.33 17.4 11 17 1007.1 0 31.0 30.8 54.8 144.6 152.4 528.9
24 10:00 26.9 56 14.33 17.4 13 20 1007.7 0 31.0 30.8 54.8 144.7 152.5 529.2
24 09:50 27.1 52 13.46 16.4 20 28 1007.8 0 29.1 29.3 51.2 135.1 140.8 488.3
24 09:40 26.8 52 13.24 16.1 17 28 1007.8 0 28.7 29.1 50.5 133.4 138.5 480.3
24 09:30 26.8 53 13.49 16.4 9 11 1007.4 0 29.2 29.5 51.5 135.9 141.7 491.4
24 09:20 26.5 53 13.27 16.4 7 11 1007.1 0 28.8 29.2 50.8 134.1 139.3 483.2
24 09:10 26.7 54 13.67 16.6 9 13 1006.8 0 29.6 29.8 52.2 137.9 144.1 499.9
24 09:00 26.2 56 13.79 16.7 9 15 1006.8 0 29.9 30.1 53.1 140.1 146.6 508.6
24 08:50 26 57 13.88 16.8 13 24 1006.7 0 30.1 30.3 53.5 141.4 148.2 514.0
24 08:40 25.1 60 13.89 17 11 19 1006.8 0 30.2 30.7 54.2 143.1 150.0 520.5
24 08:30 24.4 63 14.02 17.1 11 17 1006.1 0 30.5 31.1 55.2 145.7 153.1 531.0
24 08:20 24 67 14.58 17.5 7 11 1006.1 0 31.7 32.2 57.8 152.8 161.6 560.6
24 08:10 23.5 69 14.59 17.5 7 13 1005.3 0 31.8 32.4 58.2 153.7 162.7 564.4
24 08:00 23.2 72 14.97 17.9 13 17 1004.8 0 32.6 33.1 60.0 158.6 168.6 585.0
24 07:50 22.9 74 15.12 18 15 19 1004.5 0 32.9 33.5 60.9 160.9 171.4 594.6
24 07:40 22.7 74 14.95 17.8 13 19 1004.5 0 32.6 33.3 60.3 159.4 169.4 587.7
24 07:30 22.5 75 14.98 17.8 15 19 1004.4 0 32.7 33.4 60.6 160.1 170.3 590.7
24 07:20 22.4 76 15.09 18 13 17 1004.4 0 32.9 33.6 61.2 161.6 172.1 596.9
24 07:10 22.6 76 15.27 18.2 13 17 1004.5 0 33.3 33.9 61.8 163.3 174.2 604.4
24 07:00 22.8 74 15.04 17.9 15 20 1004.8 0 32.8 33.4 60.7 160.3 170.5 591.5
24 06:50 22.9 72 14.71 17.6 15 22 1004.9 0 32.1 32.8 59.2 156.3 165.6 574.5
24 06:40 22.8 74 15.04 17.9 15 19 1005.1 0 32.8 33.4 60.7 160.3 170.5 591.7
24 06:30 22.9 74 15.12 18 17 20 1005.2 0 32.9 33.5 60.9 161.0 171.5 594.9
24 06:20 22.7 73 14.75 17.6 17 24 1005 0 32.2 32.9 59.5 157.1 166.6 578.0
24 06:10 22.9 72 14.71 17.6 19 26 1004.6 0 32.1 32.8 59.1 156.2 165.6 574.4
24 06:00 22.9 72 14.71 17.6 22 28 1004.8 0 32.1 32.8 59.1 156.3 165.6 574.5
24 05:50 22.7 73 14.75 17.6 24 33 1004.5 0 32.2 32.9 59.5 157.1 166.6 577.8
24 05:40 22.7 75 15.15 18 22 30 1005.1 0 33.0 33.6 61.2 161.8 172.3 597.9
24 05:30 22.8 76 15.44 18.3 22 32 1005 0 33.6 34.1 62.4 165.0 176.3 611.6
24 05:20 22.7 75 15.15 18 19 24 1004.6 0 33.0 33.6 61.2 161.7 172.3 597.7
24 04:50 22.9 74 15.12 18 20 28 1004.9 0 32.9 33.5 60.9 161.0 171.4 594.8
24 04:40 23 73 15 17.9 20 26 1005 0 32.7 33.3 60.3 159.4 169.5 588.1
24 04:30 23.1 72 14.88 17.8 20 28 1004.9 0 32.4 33.0 59.7 157.8 167.6 581.4
24 04:20 23.1 72 14.88 17.8 22 28 1004.8 0 32.4 33.0 59.7 157.8 167.6 581.3
24 04:10 23.3 72 15.05 18 24 33 1005.1 0 32.8 33.2 60.3 159.4 169.6 588.3
24 04:00 23.4 71 14.93 17.8 22 32 1005 0 32.5 33.0 59.7 157.8 167.6 581.6
24 03:50 23.4 70 14.72 17.6 22 30 1004.8 0 32.1 32.6 58.8 155.4 164.7 571.2
24 03:40 23.6 67 14.25 17.3 20 28 1004.9 0 31.0 31.7 56.7 149.7 157.7 547.0
24 03:30 23.5 70 14.8 17.7 19 26 1004.9 0 32.2 32.7 59.1 156.1 165.6 574.4
24 03:20 23.6 70 14.89 17.8 20 28 1005 0 32.4 32.8 59.4 156.9 166.6 578.1
24 03:10 23.9 67 14.49 17.4 20 30 1004.8 0 31.5 32.0 57.5 151.8 160.4 556.4
24 03:00 23.6 67 14.25 17.1 24 33 1004.8 0 31.0 31.7 56.7 149.7 157.7 547.0
24 02:50 23.6 67 14.25 17.1 22 35 1005 0 31.0 31.7 56.7 149.7 157.7 547.1

Last Refresh: 24-Jan-2021 19:51:23

Most of the information presented on this site is sourced from the Bureau of Meteorology.  Copyright in all material sourced from the Bureau of Meteorology resides with the Commonwealth of Australia.